sensor_id;sensor_type;location;lat;lon;timestamp;P1;durP1;ratioP1;P2;durP2;ratioP2
68319;SDS011;55168;51.120;17.024;2022-08-11T00:00:04;7.8;;;6.4;;
68319;SDS011;55168;51.120;17.024;2022-08-11T00:01:05;7.8;;;6.4;;
68319;SDS011;55168;51.120;17.024;2022-08-11T00:02:01;7.8;;;6.4;;
68319;SDS011;55168;51.120;17.024;2022-08-11T00:03:03;8.3;;;6.2;;
68319;SDS011;55168;51.120;17.024;2022-08-11T00:04:02;8.3;;;6.2;;
68319;SDS011;55168;51.120;17.024;2022-08-11T00:05:04;8.3;;;6.2;;
68319;SDS011;55168;51.120;17.024;2022-08-11T00:06:00;8.3;;;6.2;;
68319;SDS011;55168;51.120;17.024;2022-08-11T00:07:02;8.3;;;6.2;;
68319;SDS011;55168;51.120;17.024;2022-08-11T00:08:00;8.3;;;6.4;;
68319;SDS011;55168;51.120;17.024;2022-08-11T00:09:04;8.3;;;6.4;;
68319;SDS011;55168;51.120;17.024;2022-08-11T00:10:00;8.3;;;6.4;;
68319;SDS011;55168;51.120;17.024;2022-08-11T00:11:02;8.3;;;6.4;;
68319;SDS011;55168;51.120;17.024;2022-08-11T00:12:01;8.3;;;6.4;;
68319;SDS011;55168;51.120;17.024;2022-08-11T00:13:03;7.3;;;6.3;;
68319;SDS011;55168;51.120;17.024;2022-08-11T00:14:01;7.3;;;6.3;;
68319;SDS011;55168;51.120;17.024;2022-08-11T00:15:00;7.3;;;6.3;;
68319;SDS011;55168;51.120;17.024;2022-08-11T00:16:01;7.3;;;6.3;;
68319;SDS011;55168;51.120;17.024;2022-08-11T00:17:04;7.3;;;6.3;;
68319;SDS011;55168;51.120;17.024;2022-08-11T00:18:01;7.5;;;6.6;;
68319;SDS011;55168;51.120;17.024;2022-08-11T00:19:01;7.5;;;6.6;;
68319;SDS011;55168;51.120;17.024;2022-08-11T00:20:11;7.5;;;6.6;;
68319;SDS011;55168;51.120;17.024;2022-08-11T00:21:00;7.5;;;6.6;;
68319;SDS011;55168;51.120;17.024;2022-08-11T00:22:00;7.5;;;6.6;;
68319;SDS011;55168;51.120;17.024;2022-08-11T00:23:05;7.2;;;6.5;;
68319;SDS011;55168;51.120;17.024;2022-08-11T00:24:01;7.2;;;6.5;;
68319;SDS011;55168;51.120;17.024;2022-08-11T00:25:08;7.2;;;6.5;;
68319;SDS011;55168;51.120;17.024;2022-08-11T00:26:00;7.2;;;6.5;;
68319;SDS011;55168;51.120;17.024;2022-08-11T00:27:00;7.2;;;6.5;;
68319;SDS011;55168;51.120;17.024;2022-08-11T00:28:00;8.1;;;6.1;;
68319;SDS011;55168;51.120;17.024;2022-08-11T00:29:09;8.1;;;6.1;;
68319;SDS011;55168;51.120;17.024;2022-08-11T00:30:00;8.1;;;6.1;;
68319;SDS011;55168;51.120;17.024;2022-08-11T00:31:10;8.1;;;6.1;;
68319;SDS011;55168;51.120;17.024;2022-08-11T00:32:02;8.1;;;6.1;;
68319;SDS011;55168;51.120;17.024;2022-08-11T00:33:00;7.6;;;6.4;;
68319;SDS011;55168;51.120;17.024;2022-08-11T00:34:00;7.6;;;6.4;;
68319;SDS011;55168;51.120;17.024;2022-08-11T00:35:03;7.6;;;6.4;;
68319;SDS011;55168;51.120;17.024;2022-08-11T00:36:02;7.6;;;6.4;;
68319;SDS011;55168;51.120;17.024;2022-08-11T00:37:16;7.6;;;6.4;;
68319;SDS011;55168;51.120;17.024;2022-08-11T00:38:00;6.5;;;5.8;;
68319;SDS011;55168;51.120;17.024;2022-08-11T00:39:04;6.5;;;5.8;;
68319;SDS011;55168;51.120;17.024;2022-08-11T00:40:02;6.5;;;5.8;;
68319;SDS011;55168;51.120;17.024;2022-08-11T00:41:08;6.5;;;5.8;;
68319;SDS011;55168;51.120;17.024;2022-08-11T00:43:12;6.4;;;5.8;;
68319;SDS011;55168;51.120;17.024;2022-08-11T00:45:07;6.4;;;5.8;;
68319;SDS011;55168;51.120;17.024;2022-08-11T00:46:10;6.4;;;5.8;;
68319;SDS011;55168;51.120;17.024;2022-08-11T00:48:24;9.1;;;5.8;;
68319;SDS011;55168;51.120;17.024;2022-08-11T00:49:12;9.1;;;5.8;;
68319;SDS011;55168;51.120;17.024;2022-08-11T00:51:32;9.1;;;5.8;;
68319;SDS011;55168;51.120;17.024;2022-08-11T00:53:24;6.2;;;5.6;;
68319;SDS011;55168;51.120;17.024;2022-08-11T00:54:07;6.2;;;5.6;;
68319;SDS011;55168;51.120;17.024;2022-08-11T00:58:17;6.2;;;5.6;;
68319;SDS011;55168;51.120;17.024;2022-08-11T00:59:31;6.2;;;5.6;;
68319;SDS011;55168;51.120;17.024;2022-08-11T01:00:11;6.2;;;5.6;;
68319;SDS011;55168;51.120;17.024;2022-08-11T01:02:13;6.2;;;5.6;;
68319;SDS011;55168;51.120;17.024;2022-08-11T01:03:13;5.9;;;5.3;;
68319;SDS011;55168;51.120;17.024;2022-08-11T01:05:22;5.9;;;5.3;;
68319;SDS011;55168;51.120;17.024;2022-08-11T01:12:08;6.0;;;5.3;;
68319;SDS011;55168;51.120;17.024;2022-08-11T01:13:08;10.9;;;6.4;;
68319;SDS011;55168;51.120;17.024;2022-08-11T01:14:14;10.9;;;6.4;;
68319;SDS011;55168;51.120;17.024;2022-08-11T01:18:14;7.1;;;5.6;;
68319;SDS011;55168;51.120;17.024;2022-08-11T01:20:22;7.1;;;5.6;;
68319;SDS011;55168;51.120;17.024;2022-08-11T01:21:16;7.1;;;5.6;;
68319;SDS011;55168;51.120;17.024;2022-08-11T01:33:23;6.5;;;5.5;;
68319;SDS011;55168;51.120;17.024;2022-08-11T01:45:14;7.8;;;5.5;;
68319;SDS011;55168;51.120;17.024;2022-08-11T01:46:08;7.8;;;5.5;;
68319;SDS011;55168;51.120;17.024;2022-08-11T01:50:10;6.7;;;5.7;;
68319;SDS011;55168;51.120;17.024;2022-08-11T01:51:30;6.7;;;5.7;;
68319;SDS011;55168;51.120;17.024;2022-08-11T01:52:11;6.7;;;5.7;;
68319;SDS011;55168;51.120;17.024;2022-08-11T01:53:27;6.8;;;5.5;;
68319;SDS011;55168;51.120;17.024;2022-08-11T01:54:04;6.8;;;5.5;;
68319;SDS011;55168;51.120;17.024;2022-08-11T01:55:17;6.8;;;5.5;;
68319;SDS011;55168;51.120;17.024;2022-08-11T01:56:11;6.8;;;5.5;;
68319;SDS011;55168;51.120;17.024;2022-08-11T01:57:27;6.8;;;5.5;;
68319;SDS011;55168;51.120;17.024;2022-08-11T01:59:15;6.3;;;5.4;;
68319;SDS011;55168;51.120;17.024;2022-08-11T02:00:18;6.3;;;5.4;;
68319;SDS011;55168;51.120;17.024;2022-08-11T02:01:14;6.3;;;5.4;;
68319;SDS011;55168;51.120;17.024;2022-08-11T02:03:06;7.2;;;5.6;;
68319;SDS011;55168;51.120;17.024;2022-08-11T02:04:08;7.2;;;5.6;;
68319;SDS011;55168;51.120;17.024;2022-08-11T02:05:06;7.2;;;5.6;;
68319;SDS011;55168;51.120;17.024;2022-08-11T02:06:03;7.2;;;5.6;;
68319;SDS011;55168;51.120;17.024;2022-08-11T02:07:08;7.2;;;5.6;;
68319;SDS011;55168;51.120;17.024;2022-08-11T02:08:10;5.7;;;5.1;;
68319;SDS011;55168;51.120;17.024;2022-08-11T02:09:07;5.7;;;5.1;;
68319;SDS011;55168;51.120;17.024;2022-08-11T02:10:14;5.7;;;5.1;;
68319;SDS011;55168;51.120;17.024;2022-08-11T02:12:09;5.7;;;5.1;;
68319;SDS011;55168;51.120;17.024;2022-08-11T02:13:06;6.6;;;5.3;;
68319;SDS011;55168;51.120;17.024;2022-08-11T02:16:07;6.6;;;5.3;;
68319;SDS011;55168;51.120;17.024;2022-08-11T02:17:12;6.6;;;5.3;;
68319;SDS011;55168;51.120;17.024;2022-08-11T02:18:20;5.6;;;5.1;;
68319;SDS011;55168;51.120;17.024;2022-08-11T02:19:11;5.6;;;5.1;;
68319;SDS011;55168;51.120;17.024;2022-08-11T02:20:09;5.6;;;5.1;;
68319;SDS011;55168;51.120;17.024;2022-08-11T02:21:05;5.6;;;5.1;;
68319;SDS011;55168;51.120;17.024;2022-08-11T02:22:05;5.6;;;5.1;;
68319;SDS011;55168;51.120;17.024;2022-08-11T02:23:01;5.2;;;4.7;;
68319;SDS011;55168;51.120;17.024;2022-08-11T02:24:07;5.2;;;4.7;;
68319;SDS011;55168;51.120;17.024;2022-08-11T02:25:09;5.2;;;4.7;;
68319;SDS011;55168;51.120;17.024;2022-08-11T02:26:06;5.2;;;4.7;;
68319;SDS011;55168;51.120;17.024;2022-08-11T02:27:06;5.2;;;4.7;;
68319;SDS011;55168;51.120;17.024;2022-08-11T02:28:06;5.1;;;4.5;;
68319;SDS011;55168;51.120;17.024;2022-08-11T02:30:06;5.1;;;4.5;;
68319;SDS011;55168;51.120;17.024;2022-08-11T02:31:07;5.1;;;4.5;;
68319;SDS011;55168;51.120;17.024;2022-08-11T02:32:12;5.1;;;4.5;;
68319;SDS011;55168;51.120;17.024;2022-08-11T02:33:11;6.0;;;4.5;;
68319;SDS011;55168;51.120;17.024;2022-08-11T02:34:11;6.0;;;4.5;;
68319;SDS011;55168;51.120;17.024;2022-08-11T02:35:13;6.0;;;4.5;;
68319;SDS011;55168;51.120;17.024;2022-08-11T02:36:02;6.0;;;4.5;;
68319;SDS011;55168;51.120;17.024;2022-08-11T02:37:09;6.0;;;4.5;;
68319;SDS011;55168;51.120;17.024;2022-08-11T02:39:07;5.4;;;4.6;;
68319;SDS011;55168;51.120;17.024;2022-08-11T02:40:10;5.4;;;4.6;;
68319;SDS011;55168;51.120;17.024;2022-08-11T02:42:15;5.4;;;4.6;;
68319;SDS011;55168;51.120;17.024;2022-08-11T02:43:04;5.8;;;4.7;;
68319;SDS011;55168;51.120;17.024;2022-08-11T02:45:13;5.8;;;4.7;;
68319;SDS011;55168;51.120;17.024;2022-08-11T02:46:05;5.8;;;4.7;;
68319;SDS011;55168;51.120;17.024;2022-08-11T02:48:17;5.6;;;5.0;;
68319;SDS011;55168;51.120;17.024;2022-08-11T02:49:10;5.6;;;5.0;;
68319;SDS011;55168;51.120;17.024;2022-08-11T02:52:14;5.6;;;5.0;;
68319;SDS011;55168;51.120;17.024;2022-08-11T02:53:11;6.1;;;5.1;;
68319;SDS011;55168;51.120;17.024;2022-08-11T02:55:20;6.1;;;5.1;;
68319;SDS011;55168;51.120;17.024;2022-08-11T02:56:05;6.1;;;5.1;;
68319;SDS011;55168;51.120;17.024;2022-08-11T02:57:05;6.1;;;5.1;;
68319;SDS011;55168;51.120;17.024;2022-08-11T02:58:13;6.1;;;5.2;;
68319;SDS011;55168;51.120;17.024;2022-08-11T02:59:06;6.1;;;5.2;;
68319;SDS011;55168;51.120;17.024;2022-08-11T03:00:06;6.1;;;5.2;;
68319;SDS011;55168;51.120;17.024;2022-08-11T03:02:10;6.1;;;5.2;;
68319;SDS011;55168;51.120;17.024;2022-08-11T03:04:06;5.7;;;5.0;;
68319;SDS011;55168;51.120;17.024;2022-08-11T03:07:07;5.7;;;5.0;;
68319;SDS011;55168;51.120;17.024;2022-08-11T03:08:21;5.8;;;5.2;;
68319;SDS011;55168;51.120;17.024;2022-08-11T03:09:05;5.8;;;5.2;;
68319;SDS011;55168;51.120;17.024;2022-08-11T03:12:03;5.8;;;5.2;;
68319;SDS011;55168;51.120;17.024;2022-08-11T03:13:27;6.2;;;5.4;;
68319;SDS011;55168;51.120;17.024;2022-08-11T03:14:26;6.2;;;5.4;;
68319;SDS011;55168;51.120;17.024;2022-08-11T03:15:06;6.2;;;5.4;;
68319;SDS011;55168;51.120;17.024;2022-08-11T03:16:15;6.2;;;5.4;;
68319;SDS011;55168;51.120;17.024;2022-08-11T03:21:28;8.3;;;5.8;;
68319;SDS011;55168;51.120;17.024;2022-08-11T03:22:09;8.3;;;5.8;;
68319;SDS011;55168;51.120;17.024;2022-08-11T03:23:16;6.4;;;5.8;;
68319;SDS011;55168;51.120;17.024;2022-08-11T03:24:04;6.4;;;5.8;;
68319;SDS011;55168;51.120;17.024;2022-08-11T03:25:11;6.4;;;5.8;;
68319;SDS011;55168;51.120;17.024;2022-08-11T03:26:12;6.4;;;5.8;;
68319;SDS011;55168;51.120;17.024;2022-08-11T03:29:04;7.5;;;5.9;;
68319;SDS011;55168;51.120;17.024;2022-08-11T03:32:18;7.5;;;5.9;;
68319;SDS011;55168;51.120;17.024;2022-08-11T03:33:16;11.0;;;6.2;;
68319;SDS011;55168;51.120;17.024;2022-08-11T03:34:02;11.0;;;6.2;;
68319;SDS011;55168;51.120;17.024;2022-08-11T03:35:02;11.0;;;6.2;;
68319;SDS011;55168;51.120;17.024;2022-08-11T03:37:13;11.0;;;6.2;;
68319;SDS011;55168;51.120;17.024;2022-08-11T03:38:02;8.6;;;6.0;;
68319;SDS011;55168;51.120;17.024;2022-08-11T03:40:06;8.6;;;6.0;;
68319;SDS011;55168;51.120;17.024;2022-08-11T03:41:06;8.6;;;6.0;;
68319;SDS011;55168;51.120;17.024;2022-08-11T03:42:17;8.6;;;6.0;;
68319;SDS011;55168;51.120;17.024;2022-08-11T03:43:05;9.4;;;5.9;;
68319;SDS011;55168;51.120;17.024;2022-08-11T03:44:17;9.4;;;5.9;;
68319;SDS011;55168;51.120;17.024;2022-08-11T03:45:08;9.4;;;5.9;;
68319;SDS011;55168;51.120;17.024;2022-08-11T03:47:11;9.4;;;5.9;;
68319;SDS011;55168;51.120;17.024;2022-08-11T03:48:18;8.6;;;5.8;;
68319;SDS011;55168;51.120;17.024;2022-08-11T03:49:19;8.6;;;5.8;;
68319;SDS011;55168;51.120;17.024;2022-08-11T03:50:06;8.6;;;5.8;;
68319;SDS011;55168;51.120;17.024;2022-08-11T03:52:20;8.6;;;5.8;;
68319;SDS011;55168;51.120;17.024;2022-08-11T03:53:13;7.3;;;5.4;;
68319;SDS011;55168;51.120;17.024;2022-08-11T03:55:07;7.3;;;5.4;;
68319;SDS011;55168;51.120;17.024;2022-08-11T03:57:19;7.3;;;5.4;;
68319;SDS011;55168;51.120;17.024;2022-08-11T03:59:14;15.9;;;5.9;;
68319;SDS011;55168;51.120;17.024;2022-08-11T04:02:14;15.9;;;5.9;;
68319;SDS011;55168;51.120;17.024;2022-08-11T04:05:31;7.6;;;5.9;;
68319;SDS011;55168;51.120;17.024;2022-08-11T04:10:14;7.9;;;5.5;;
68319;SDS011;55168;51.120;17.024;2022-08-11T04:11:13;7.9;;;5.5;;
68319;SDS011;55168;51.120;17.024;2022-08-11T04:14:20;7.5;;;5.6;;
68319;SDS011;55168;51.120;17.024;2022-08-11T04:18:05;10.4;;;6.3;;
68319;SDS011;55168;51.120;17.024;2022-08-11T04:21:25;10.4;;;6.3;;
68319;SDS011;55168;51.120;17.024;2022-08-11T04:24:13;7.3;;;6.2;;
68319;SDS011;55168;51.120;17.024;2022-08-11T04:29:29;9.0;;;6.1;;
68319;SDS011;55168;51.120;17.024;2022-08-11T04:32:08;9.0;;;6.1;;
68319;SDS011;55168;51.120;17.024;2022-08-11T04:33:16;9.1;;;6.4;;
68319;SDS011;55168;51.120;17.024;2022-08-11T04:35:13;9.1;;;6.4;;
68319;SDS011;55168;51.120;17.024;2022-08-11T04:36:09;9.1;;;6.4;;
68319;SDS011;55168;51.120;17.024;2022-08-11T04:38:23;11.2;;;8.3;;
68319;SDS011;55168;51.120;17.024;2022-08-11T04:39:14;11.2;;;8.3;;
68319;SDS011;55168;51.120;17.024;2022-08-11T04:40:08;11.2;;;8.3;;
68319;SDS011;55168;51.120;17.024;2022-08-11T04:43:14;7.8;;;6.5;;
68319;SDS011;55168;51.120;17.024;2022-08-11T04:54:21;9.2;;;6.8;;
68319;SDS011;55168;51.120;17.024;2022-08-11T04:56:06;9.2;;;6.8;;
68319;SDS011;55168;51.120;17.024;2022-08-11T04:57:08;9.2;;;6.8;;
68319;SDS011;55168;51.120;17.024;2022-08-11T04:59:14;12.4;;;7.3;;
68319;SDS011;55168;51.120;17.024;2022-08-11T05:00:05;12.4;;;7.3;;
68319;SDS011;55168;51.120;17.024;2022-08-11T05:03:13;9.5;;;6.1;;
68319;SDS011;55168;51.120;17.024;2022-08-11T05:09:11;14.1;;;7.5;;
68319;SDS011;55168;51.120;17.024;2022-08-11T05:12:08;14.1;;;7.5;;
68319;SDS011;55168;51.120;17.024;2022-08-11T05:13:02;13.4;;;5.9;;
68319;SDS011;55168;51.120;17.024;2022-08-11T05:15:00;13.4;;;5.9;;
68319;SDS011;55168;51.120;17.024;2022-08-11T05:16:09;13.4;;;5.9;;
68319;SDS011;55168;51.120;17.024;2022-08-11T05:17:14;13.4;;;5.9;;
68319;SDS011;55168;51.120;17.024;2022-08-11T05:18:06;15.6;;;6.5;;
68319;SDS011;55168;51.120;17.024;2022-08-11T05:19:01;15.6;;;6.5;;
68319;SDS011;55168;51.120;17.024;2022-08-11T05:20:00;15.6;;;6.5;;
68319;SDS011;55168;51.120;17.024;2022-08-11T05:21:05;15.6;;;6.5;;
68319;SDS011;55168;51.120;17.024;2022-08-11T05:22:02;15.6;;;6.5;;
68319;SDS011;55168;51.120;17.024;2022-08-11T05:23:05;10.2;;;5.8;;
68319;SDS011;55168;51.120;17.024;2022-08-11T05:24:09;10.2;;;5.8;;
68319;SDS011;55168;51.120;17.024;2022-08-11T05:25:05;10.2;;;5.8;;
68319;SDS011;55168;51.120;17.024;2022-08-11T05:26:02;10.2;;;5.8;;
68319;SDS011;55168;51.120;17.024;2022-08-11T05:27:02;10.2;;;5.8;;
68319;SDS011;55168;51.120;17.024;2022-08-11T05:28:09;7.1;;;4.9;;
68319;SDS011;55168;51.120;17.024;2022-08-11T05:29:02;7.1;;;4.9;;
68319;SDS011;55168;51.120;17.024;2022-08-11T05:30:02;7.1;;;4.9;;
68319;SDS011;55168;51.120;17.024;2022-08-11T05:31:07;7.1;;;4.9;;
68319;SDS011;55168;51.120;17.024;2022-08-11T05:32:00;7.1;;;4.9;;
68319;SDS011;55168;51.120;17.024;2022-08-11T05:33:05;11.9;;;4.8;;
68319;SDS011;55168;51.120;17.024;2022-08-11T05:34:08;11.9;;;4.8;;
68319;SDS011;55168;51.120;17.024;2022-08-11T05:35:02;11.9;;;4.8;;
68319;SDS011;55168;51.120;17.024;2022-08-11T05:36:09;11.9;;;4.8;;
68319;SDS011;55168;51.120;17.024;2022-08-11T05:37:04;11.9;;;4.8;;
68319;SDS011;55168;51.120;17.024;2022-08-11T05:38:00;6.9;;;4.9;;
68319;SDS011;55168;51.120;17.024;2022-08-11T05:39:02;6.9;;;4.9;;
68319;SDS011;55168;51.120;17.024;2022-08-11T05:41:00;6.9;;;4.9;;
68319;SDS011;55168;51.120;17.024;2022-08-11T05:42:01;6.9;;;4.9;;
68319;SDS011;55168;51.120;17.024;2022-08-11T05:43:02;7.3;;;4.7;;
68319;SDS011;55168;51.120;17.024;2022-08-11T05:44:01;7.3;;;4.7;;
68319;SDS011;55168;51.120;17.024;2022-08-11T05:45:03;7.3;;;4.7;;
68319;SDS011;55168;51.120;17.024;2022-08-11T05:46:01;7.3;;;4.7;;
68319;SDS011;55168;51.120;17.024;2022-08-11T05:47:00;7.3;;;4.7;;
68319;SDS011;55168;51.120;17.024;2022-08-11T05:48:01;5.8;;;4.3;;
68319;SDS011;55168;51.120;17.024;2022-08-11T05:49:00;5.8;;;4.3;;
68319;SDS011;55168;51.120;17.024;2022-08-11T05:50:00;5.8;;;4.3;;
68319;SDS011;55168;51.120;17.024;2022-08-11T05:51:01;5.8;;;4.3;;
68319;SDS011;55168;51.120;17.024;2022-08-11T05:52:02;5.8;;;4.3;;
68319;SDS011;55168;51.120;17.024;2022-08-11T05:53:02;5.9;;;4.5;;
68319;SDS011;55168;51.120;17.024;2022-08-11T05:54:02;5.9;;;4.5;;
68319;SDS011;55168;51.120;17.024;2022-08-11T05:55:03;5.9;;;4.5;;
68319;SDS011;55168;51.120;17.024;2022-08-11T05:56:04;5.9;;;4.5;;
68319;SDS011;55168;51.120;17.024;2022-08-11T05:57:00;5.9;;;4.5;;
68319;SDS011;55168;51.120;17.024;2022-08-11T05:58:02;5.1;;;4.4;;
68319;SDS011;55168;51.120;17.024;2022-08-11T05:59:00;5.1;;;4.4;;
68319;SDS011;55168;51.120;17.024;2022-08-11T06:00:04;5.1;;;4.4;;
68319;SDS011;55168;51.120;17.024;2022-08-11T06:01:00;5.1;;;4.4;;
68319;SDS011;55168;51.120;17.024;2022-08-11T06:02:03;5.1;;;4.4;;
68319;SDS011;55168;51.120;17.024;2022-08-11T06:03:00;9.2;;;4.5;;
68319;SDS011;55168;51.120;17.024;2022-08-11T06:04:06;9.2;;;4.5;;
68319;SDS011;55168;51.120;17.024;2022-08-11T06:05:00;9.2;;;4.5;;
68319;SDS011;55168;51.120;17.024;2022-08-11T06:06:07;9.2;;;4.5;;
68319;SDS011;55168;51.120;17.024;2022-08-11T06:07:02;9.2;;;4.5;;
68319;SDS011;55168;51.120;17.024;2022-08-11T06:08:01;7.2;;;4.4;;
68319;SDS011;55168;51.120;17.024;2022-08-11T06:09:00;7.2;;;4.4;;
68319;SDS011;55168;51.120;17.024;2022-08-11T06:10:01;7.2;;;4.4;;
68319;SDS011;55168;51.120;17.024;2022-08-11T06:11:02;7.2;;;4.4;;
68319;SDS011;55168;51.120;17.024;2022-08-11T06:13:00;8.6;;;4.6;;
68319;SDS011;55168;51.120;17.024;2022-08-11T06:14:01;8.6;;;4.6;;
68319;SDS011;55168;51.120;17.024;2022-08-11T06:15:03;8.6;;;4.6;;
68319;SDS011;55168;51.120;17.024;2022-08-11T06:16:00;8.6;;;4.6;;
68319;SDS011;55168;51.120;17.024;2022-08-11T06:17:02;8.6;;;4.6;;
68319;SDS011;55168;51.120;17.024;2022-08-11T06:18:00;4.7;;;4.2;;
68319;SDS011;55168;51.120;17.024;2022-08-11T06:19:00;4.7;;;4.2;;
68319;SDS011;55168;51.120;17.024;2022-08-11T06:20:03;4.7;;;4.2;;
68319;SDS011;55168;51.120;17.024;2022-08-11T06:21:00;4.7;;;4.2;;
68319;SDS011;55168;51.120;17.024;2022-08-11T06:22:01;4.7;;;4.2;;
68319;SDS011;55168;51.120;17.024;2022-08-11T06:23:03;5.0;;;4.4;;
68319;SDS011;55168;51.120;17.024;2022-08-11T06:24:03;5.0;;;4.4;;
68319;SDS011;55168;51.120;17.024;2022-08-11T06:25:01;5.0;;;4.4;;
68319;SDS011;55168;51.120;17.024;2022-08-11T06:26:00;5.0;;;4.4;;
68319;SDS011;55168;51.120;17.024;2022-08-11T06:27:01;5.0;;;4.4;;
68319;SDS011;55168;51.120;17.024;2022-08-11T06:28:02;6.5;;;4.3;;
68319;SDS011;55168;51.120;17.024;2022-08-11T06:29:00;6.5;;;4.3;;
68319;SDS011;55168;51.120;17.024;2022-08-11T06:30:01;6.5;;;4.3;;
68319;SDS011;55168;51.120;17.024;2022-08-11T06:31:01;6.5;;;4.3;;
68319;SDS011;55168;51.120;17.024;2022-08-11T06:32:01;6.5;;;4.3;;
68319;SDS011;55168;51.120;17.024;2022-08-11T06:33:01;5.1;;;4.1;;
68319;SDS011;55168;51.120;17.024;2022-08-11T06:34:11;5.1;;;4.1;;
68319;SDS011;55168;51.120;17.024;2022-08-11T06:35:13;5.1;;;4.1;;
68319;SDS011;55168;51.120;17.024;2022-08-11T06:37:08;5.1;;;4.1;;
68319;SDS011;55168;51.120;17.024;2022-08-11T06:38:09;6.0;;;4.2;;
68319;SDS011;55168;51.120;17.024;2022-08-11T06:42:12;6.0;;;4.2;;
68319;SDS011;55168;51.120;17.024;2022-08-11T06:43:18;6.0;;;4.2;;
68319;SDS011;55168;51.120;17.024;2022-08-11T06:45:04;6.0;;;4.2;;
68319;SDS011;55168;51.120;17.024;2022-08-11T06:46:05;6.0;;;4.2;;
68319;SDS011;55168;51.120;17.024;2022-08-11T06:47:10;6.0;;;4.2;;
68319;SDS011;55168;51.120;17.024;2022-08-11T06:48:00;4.9;;;4.3;;
68319;SDS011;55168;51.120;17.024;2022-08-11T06:49:01;4.9;;;4.3;;
68319;SDS011;55168;51.120;17.024;2022-08-11T06:50:00;4.9;;;4.3;;
68319;SDS011;55168;51.120;17.024;2022-08-11T06:51:03;4.9;;;4.3;;
68319;SDS011;55168;51.120;17.024;2022-08-11T06:52:03;4.9;;;4.3;;
68319;SDS011;55168;51.120;17.024;2022-08-11T06:53:01;5.9;;;4.0;;
68319;SDS011;55168;51.120;17.024;2022-08-11T06:54:00;5.9;;;4.0;;
68319;SDS011;55168;51.120;17.024;2022-08-11T06:55:10;5.9;;;4.0;;
68319;SDS011;55168;51.120;17.024;2022-08-11T06:56:00;5.9;;;4.0;;
68319;SDS011;55168;51.120;17.024;2022-08-11T06:57:01;5.9;;;4.0;;
68319;SDS011;55168;51.120;17.024;2022-08-11T06:58:01;6.4;;;4.3;;
68319;SDS011;55168;51.120;17.024;2022-08-11T06:59:00;6.4;;;4.3;;
68319;SDS011;55168;51.120;17.024;2022-08-11T07:00:00;6.4;;;4.3;;
68319;SDS011;55168;51.120;17.024;2022-08-11T07:01:05;6.4;;;4.3;;
68319;SDS011;55168;51.120;17.024;2022-08-11T07:03:10;6.3;;;4.9;;
68319;SDS011;55168;51.120;17.024;2022-08-11T07:04:05;6.3;;;4.9;;
68319;SDS011;55168;51.120;17.024;2022-08-11T07:05:02;6.3;;;4.9;;
68319;SDS011;55168;51.120;17.024;2022-08-11T07:06:21;6.3;;;4.9;;
68319;SDS011;55168;51.120;17.024;2022-08-11T07:09:08;5.0;;;4.4;;
68319;SDS011;55168;51.120;17.024;2022-08-11T07:12:12;5.0;;;4.4;;
68319;SDS011;55168;51.120;17.024;2022-08-11T07:13:00;5.0;;;4.4;;
68319;SDS011;55168;51.120;17.024;2022-08-11T07:14:01;6.0;;;4.3;;
68319;SDS011;55168;51.120;17.024;2022-08-11T07:15:01;6.0;;;4.3;;
68319;SDS011;55168;51.120;17.024;2022-08-11T07:16:01;6.0;;;4.3;;
68319;SDS011;55168;51.120;17.024;2022-08-11T07:17:00;6.0;;;4.3;;
68319;SDS011;55168;51.120;17.024;2022-08-11T07:18:03;6.3;;;4.4;;
68319;SDS011;55168;51.120;17.024;2022-08-11T07:19:04;6.3;;;4.4;;
68319;SDS011;55168;51.120;17.024;2022-08-11T07:20:02;6.3;;;4.4;;
68319;SDS011;55168;51.120;17.024;2022-08-11T07:21:08;6.3;;;4.4;;
68319;SDS011;55168;51.120;17.024;2022-08-11T07:22:01;6.3;;;4.4;;
68319;SDS011;55168;51.120;17.024;2022-08-11T07:23:01;6.3;;;4.4;;
68319;SDS011;55168;51.120;17.024;2022-08-11T07:24:01;7.8;;;4.6;;
68319;SDS011;55168;51.120;17.024;2022-08-11T07:25:03;7.8;;;4.6;;
68319;SDS011;55168;51.120;17.024;2022-08-11T07:26:01;7.8;;;4.6;;
68319;SDS011;55168;51.120;17.024;2022-08-11T07:27:00;7.8;;;4.6;;
68319;SDS011;55168;51.120;17.024;2022-08-11T07:28:07;6.8;;;4.6;;
68319;SDS011;55168;51.120;17.024;2022-08-11T07:29:01;6.8;;;4.6;;
68319;SDS011;55168;51.120;17.024;2022-08-11T07:30:03;6.8;;;4.6;;
68319;SDS011;55168;51.120;17.024;2022-08-11T07:31:05;6.8;;;4.6;;
68319;SDS011;55168;51.120;17.024;2022-08-11T07:32:07;6.8;;;4.6;;
68319;SDS011;55168;51.120;17.024;2022-08-11T07:33:01;6.8;;;4.6;;
68319;SDS011;55168;51.120;17.024;2022-08-11T07:34:13;5.0;;;4.1;;
68319;SDS011;55168;51.120;17.024;2022-08-11T07:35:10;5.0;;;4.1;;
68319;SDS011;55168;51.120;17.024;2022-08-11T07:36:02;5.0;;;4.1;;
68319;SDS011;55168;51.120;17.024;2022-08-11T07:37:09;5.0;;;4.1;;
68319;SDS011;55168;51.120;17.024;2022-08-11T07:38:03;5.0;;;4.1;;
68319;SDS011;55168;51.120;17.024;2022-08-11T07:39:01;4.8;;;4.2;;
68319;SDS011;55168;51.120;17.024;2022-08-11T07:40:01;4.8;;;4.2;;
68319;SDS011;55168;51.120;17.024;2022-08-11T07:41:00;4.8;;;4.2;;
68319;SDS011;55168;51.120;17.024;2022-08-11T07:42:11;4.8;;;4.2;;
68319;SDS011;55168;51.120;17.024;2022-08-11T07:43:00;4.8;;;4.2;;
68319;SDS011;55168;51.120;17.024;2022-08-11T07:44:00;8.5;;;4.3;;
68319;SDS011;55168;51.120;17.024;2022-08-11T07:45:02;8.5;;;4.3;;
68319;SDS011;55168;51.120;17.024;2022-08-11T07:46:02;8.5;;;4.3;;
68319;SDS011;55168;51.120;17.024;2022-08-11T07:47:00;8.5;;;4.3;;
68319;SDS011;55168;51.120;17.024;2022-08-11T07:48:00;8.5;;;4.3;;
68319;SDS011;55168;51.120;17.024;2022-08-11T07:49:01;6.1;;;4.1;;
68319;SDS011;55168;51.120;17.024;2022-08-11T07:50:00;6.1;;;4.1;;
68319;SDS011;55168;51.120;17.024;2022-08-11T07:51:00;6.1;;;4.1;;
68319;SDS011;55168;51.120;17.024;2022-08-11T07:52:01;6.1;;;4.1;;
68319;SDS011;55168;51.120;17.024;2022-08-11T07:53:01;6.1;;;4.1;;
68319;SDS011;55168;51.120;17.024;2022-08-11T07:54:00;6.3;;;3.8;;
68319;SDS011;55168;51.120;17.024;2022-08-11T07:55:11;6.3;;;3.8;;
68319;SDS011;55168;51.120;17.024;2022-08-11T07:56:00;6.3;;;3.8;;
68319;SDS011;55168;51.120;17.024;2022-08-11T07:57:00;6.3;;;3.8;;
68319;SDS011;55168;51.120;17.024;2022-08-11T07:58:00;6.3;;;3.8;;
68319;SDS011;55168;51.120;17.024;2022-08-11T07:59:00;5.0;;;3.9;;
68319;SDS011;55168;51.120;17.024;2022-08-11T08:00:00;5.0;;;3.9;;
68319;SDS011;55168;51.120;17.024;2022-08-11T08:01:00;5.0;;;3.9;;
68319;SDS011;55168;51.120;17.024;2022-08-11T08:02:00;5.0;;;3.9;;
68319;SDS011;55168;51.120;17.024;2022-08-11T08:03:01;5.0;;;3.9;;
68319;SDS011;55168;51.120;17.024;2022-08-11T08:04:00;5.9;;;3.9;;
68319;SDS011;55168;51.120;17.024;2022-08-11T08:05:00;5.9;;;3.9;;
68319;SDS011;55168;51.120;17.024;2022-08-11T08:06:00;5.9;;;3.9;;
68319;SDS011;55168;51.120;17.024;2022-08-11T08:07:02;5.9;;;3.9;;
68319;SDS011;55168;51.120;17.024;2022-08-11T08:08:00;5.9;;;3.9;;
68319;SDS011;55168;51.120;17.024;2022-08-11T08:09:00;5.7;;;4.0;;
68319;SDS011;55168;51.120;17.024;2022-08-11T08:10:00;5.7;;;4.0;;
68319;SDS011;55168;51.120;17.024;2022-08-11T08:11:00;5.7;;;4.0;;
68319;SDS011;55168;51.120;17.024;2022-08-11T08:12:02;5.7;;;4.0;;
68319;SDS011;55168;51.120;17.024;2022-08-11T08:13:00;5.7;;;4.0;;
68319;SDS011;55168;51.120;17.024;2022-08-11T08:14:00;7.0;;;4.4;;
68319;SDS011;55168;51.120;17.024;2022-08-11T08:15:00;7.0;;;4.4;;
68319;SDS011;55168;51.120;17.024;2022-08-11T08:16:00;7.0;;;4.4;;
68319;SDS011;55168;51.120;17.024;2022-08-11T08:17:00;7.0;;;4.4;;
68319;SDS011;55168;51.120;17.024;2022-08-11T08:18:02;7.0;;;4.4;;
68319;SDS011;55168;51.120;17.024;2022-08-11T08:19:00;4.7;;;3.9;;
68319;SDS011;55168;51.120;17.024;2022-08-11T08:20:01;4.7;;;3.9;;
68319;SDS011;55168;51.120;17.024;2022-08-11T08:21:00;4.7;;;3.9;;
68319;SDS011;55168;51.120;17.024;2022-08-11T08:22:00;4.7;;;3.9;;
68319;SDS011;55168;51.120;17.024;2022-08-11T08:23:01;4.7;;;3.9;;
68319;SDS011;55168;51.120;17.024;2022-08-11T08:24:02;7.3;;;4.0;;
68319;SDS011;55168;51.120;17.024;2022-08-11T08:25:00;7.3;;;4.0;;
68319;SDS011;55168;51.120;17.024;2022-08-11T08:26:03;7.3;;;4.0;;